Time;durP1;ratioP1;P1;durP2;ratioP2;P2;SDS_P1;SDS_P2;PMS_P1;PMS_P2;Temp;Humidity;BMP_temperature;BMP_pressure;BME280_temperature;BME280_humidity;BME280_pressure;Samples;Min_cycle;Max_cycle;Signal;HPM_P1;HPM_P2
2021/03/16 00:01:16;;;;;;;10.73;7.10;;;4.00;98.50;;;;;;2032403;29;20044;-77
2021/03/16 00:02:26;;;;;;;12.20;7.57;;;4.00;98.50;;;;;;2032691;29;20130;-77
2021/03/16 00:03:28;;;;;;;9.55;7.10;;;4.00;98.70;;;;;;2032208;29;20024;-76
2021/03/16 00:04:41;;;;;;;9.82;6.63;;;4.00;98.70;;;;;;2032516;28;20484;-77
2021/03/16 00:05:51;;;;;;;9.85;6.53;;;4.00;98.20;;;;;;2032691;29;20414;-77
2021/03/16 00:06:52;;;;;;;10.30;6.93;;;4.00;98.70;;;;;;2032334;29;20040;-78
2021/03/16 00:07:53;;;;;;;11.68;7.20;;;4.00;98.80;;;;;;2032350;29;20021;-77
2021/03/16 00:08:54;;;;;;;10.93;6.93;;;4.00;98.70;;;;;;2032526;29;20038;-77
2021/03/16 00:09:54;;;;;;;10.13;7.45;;;4.00;98.80;;;;;;2032376;28;20035;-77
2021/03/16 00:10:55;;;;;;;10.65;7.25;;;4.00;98.90;;;;;;2031648;29;20017;-78
2021/03/16 00:11:55;;;;;;;9.80;6.88;;;4.00;98.80;;;;;;2032358;28;20033;-77
2021/03/16 00:12:56;;;;;;;9.77;7.53;;;4.00;99.00;;;;;;2032396;28;20078;-77
2021/03/16 00:13:57;;;;;;;10.35;6.93;;;4.00;99.10;;;;;;2031925;29;20522;-77
2021/03/16 00:14:57;;;;;;;10.20;6.93;;;4.00;98.90;;;;;;2032538;28;20106;-76
2021/03/16 00:15:58;;;;;;;9.88;6.90;;;3.90;98.70;;;;;;2032395;28;20028;-77
2021/03/16 00:16:59;;;;;;;10.77;7.45;;;3.90;99.10;;;;;;2039827;28;20515;-77
2021/03/16 00:18:02;;;;;;;10.23;6.97;;;4.00;99.00;;;;;;2039596;29;21899;-76
2021/03/16 00:19:02;;;;;;;11.88;7.40;;;4.00;99.10;;;;;;2032440;29;20032;-77
2021/03/16 00:20:03;;;;;;;10.57;7.32;;;4.00;99.30;;;;;;2039604;28;20510;-77
2021/03/16 00:21:04;;;;;;;10.30;6.93;;;4.00;98.70;;;;;;2039335;29;20023;-77
2021/03/16 00:22:05;;;;;;;11.40;6.95;;;4.00;98.90;;;;;;2032340;29;20447;-77
2021/03/16 00:23:07;;;;;;;12.13;7.50;;;3.90;98.70;;;;;;2032667;28;20043;-76
2021/03/16 00:24:08;;;;;;;10.40;7.47;;;3.90;98.90;;;;;;2031999;29;20074;-77
2021/03/16 00:25:09;;;;;;;13.85;7.35;;;4.00;99.10;;;;;;2023900;28;20072;-77
2021/03/16 00:26:09;;;;;;;10.32;7.15;;;3.90;99.20;;;;;;2024001;29;20033;-77
2021/03/16 00:27:10;;;;;;;11.43;7.30;;;3.90;99.30;;;;;;2032400;29;20066;-77
2021/03/16 00:28:11;;;;;;;11.68;7.05;;;4.00;99.30;;;;;;2032360;28;20028;-78
2021/03/16 00:29:11;;;;;;;10.13;7.18;;;4.00;99.00;;;;;;2032449;28;20068;-77
2021/03/16 00:30:12;;;;;;;10.90;7.25;;;4.00;98.70;;;;;;2032489;28;20036;-77
2021/03/16 00:31:13;;;;;;;10.48;7.55;;;3.90;98.50;;;;;;2039296;29;20032;-77
2021/03/16 00:32:14;;;;;;;10.93;7.35;;;3.90;98.90;;;;;;2039369;29;20525;-77
2021/03/16 00:33:14;;;;;;;12.57;7.20;;;3.90;98.80;;;;;;2031805;29;20039;-77
2021/03/16 00:34:15;;;;;;;9.85;6.97;;;3.90;98.80;;;;;;2039537;28;20042;-77
2021/03/16 00:35:15;;;;;;;9.32;7.05;;;3.90;99.10;;;;;;2039604;29;20127;-77
2021/03/16 00:36:16;;;;;;;13.23;7.97;;;4.00;99.20;;;;;;2032380;28;20036;-77
2021/03/16 00:37:17;;;;;;;12.57;7.70;;;4.00;99.20;;;;;;2039719;28;20059;-77
2021/03/16 00:38:17;;;;;;;12.60;7.53;;;3.90;99.20;;;;;;2031727;29;20123;-77
2021/03/16 00:39:18;;;;;;;11.25;7.53;;;4.00;99.10;;;;;;2031971;29;20504;-77
2021/03/16 00:40:18;;;;;;;11.32;7.82;;;3.90;99.10;;;;;;2032426;29;20028;-76
2021/03/16 00:41:19;;;;;;;12.55;7.68;;;4.00;99.20;;;;;;2032023;29;20025;-77
2021/03/16 00:42:21;;;;;;;10.77;7.57;;;4.00;99.30;;;;;;2032111;29;20052;-77
2021/03/16 00:43:22;;;;;;;12.10;8.00;;;3.90;99.10;;;;;;2032048;28;20111;-77
2021/03/16 00:44:22;;;;;;;11.05;7.80;;;3.90;99.20;;;;;;2032516;28;20036;-77
2021/03/16 00:45:23;;;;;;;12.60;8.02;;;3.90;99.20;;;;;;2032422;28;20043;-77
2021/03/16 00:46:24;;;;;;;15.05;8.10;;;3.90;99.30;;;;;;2031656;28;20086;-77
2021/03/16 00:47:24;;;;;;;12.25;8.07;;;3.90;99.30;;;;;;2031605;29;20021;-77
2021/03/16 00:48:25;;;;;;;14.02;8.25;;;3.90;99.20;;;;;;2039773;29;20032;-77
2021/03/16 00:49:29;;;;;;;13.50;8.20;;;3.90;99.40;;;;;;2032314;29;20029;-77
2021/03/16 00:50:30;;;;;;;13.13;8.30;;;3.90;99.30;;;;;;2031614;28;20772;-76
2021/03/16 00:51:32;;;;;;;12.02;8.00;;;3.90;99.30;;;;;;2073000;28;20513;-77
2021/03/16 00:52:33;;;;;;;14.38;8.70;;;3.90;99.30;;;;;;2064447;28;20490;-77
2021/03/16 00:53:34;;;;;;;12.70;8.27;;;3.90;99.20;;;;;;2031800;29;20040;-77
2021/03/16 00:54:40;;;;;;;12.48;8.77;;;3.90;99.10;;;;;;2035811;29;20028;-77
2021/03/16 00:55:42;;;;;;;15.00;8.88;;;4.00;98.90;;;;;;2036256;29;20021;-77
2021/03/16 00:56:44;;;;;;;14.75;8.75;;;3.90;98.80;;;;;;2034687;28;20040;-77
2021/03/16 00:57:45;;;;;;;13.23;8.63;;;3.90;99.20;;;;;;2032594;29;20061;-78
2021/03/16 00:58:45;;;;;;;14.65;9.10;;;3.90;99.20;;;;;;2033132;28;20086;-77
2021/03/16 00:59:46;;;;;;;16.52;9.23;;;3.90;99.30;;;;;;2033087;28;20063;-77
2021/03/16 01:00:47;;;;;;;13.73;8.95;;;3.90;99.30;;;;;;2039959;28;20067;-77
2021/03/16 01:01:47;;;;;;;15.27;9.30;;;3.90;99.20;;;;;;2032209;29;20020;-77
2021/03/16 01:02:48;;;;;;;16.15;9.45;;;4.00;99.40;;;;;;2032001;29;20475;-78
2021/03/16 01:03:48;;;;;;;14.55;9.82;;;3.90;99.40;;;;;;2039410;29;20039;-77
2021/03/16 01:04:49;;;;;;;15.23;9.93;;;4.00;99.10;;;;;;2039932;29;20024;-77
2021/03/16 01:05:51;;;;;;;15.25;9.73;;;4.00;99.10;;;;;;2032484;28;20024;-77
2021/03/16 01:06:52;;;;;;;13.25;9.38;;;3.90;99.10;;;;;;2040027;29;20553;-78
2021/03/16 01:07:52;;;;;;;14.50;9.68;;;4.00;99.20;;;;;;2039884;29;20119;-78
2021/03/16 01:08:53;;;;;;;14.52;9.50;;;4.00;99.00;;;;;;2033422;28;20040;-78
2021/03/16 01:09:54;;;;;;;15.63;9.88;;;3.90;98.90;;;;;;2033561;28;20449;-78
2021/03/16 01:10:55;;;;;;;15.35;10.02;;;4.00;99.00;;;;;;2032603;29;20103;-77
2021/03/16 01:11:56;;;;;;;13.93;9.95;;;3.90;99.30;;;;;;2032803;29;20084;-77
2021/03/16 01:12:56;;;;;;;17.05;10.15;;;3.90;99.40;;;;;;2039871;28;20098;-77
2021/03/16 01:13:57;;;;;;;17.23;9.80;;;4.00;99.20;;;;;;2040118;29;20415;-77
2021/03/16 01:14:58;;;;;;;16.63;9.70;;;4.00;99.10;;;;;;2033362;29;20084;-78
2021/03/16 01:15:59;;;;;;;19.02;9.73;;;3.90;99.20;;;;;;2032942;28;20087;-77
2021/03/16 01:16:59;;;;;;;15.45;9.65;;;4.00;99.40;;;;;;2033076;29;20035;-78
2021/03/16 01:18:00;;;;;;;14.50;9.73;;;3.90;99.30;;;;;;2034464;29;20024;-77
2021/03/16 01:19:01;;;;;;;14.43;9.65;;;3.90;99.40;;;;;;2034417;29;20059;-77
2021/03/16 01:20:17;;;;;;;16.48;9.98;;;3.90;99.40;;;;;;2036575;29;20021;-77
2021/03/16 01:21:18;;;;;;;15.70;10.05;;;3.90;99.50;;;;;;2036852;29;20025;-77
2021/03/16 01:22:18;;;;;;;16.35;10.15;;;4.00;99.50;;;;;;2036012;29;20036;-79
2021/03/16 01:23:19;;;;;;;14.48;9.77;;;3.90;99.20;;;;;;2036664;29;20060;-77
2021/03/16 01:24:19;;;;;;;15.32;10.32;;;4.00;99.10;;;;;;2036824;29;20078;-77
2021/03/16 01:25:20;;;;;;;16.17;9.90;;;3.90;99.20;;;;;;2036648;29;20103;-78
2021/03/16 01:26:21;;;;;;;14.20;9.32;;;4.00;99.40;;;;;;2034797;29;20518;-78
2021/03/16 01:27:21;;;;;;;13.70;9.63;;;3.90;99.50;;;;;;2041779;28;20034;-78
2021/03/16 01:28:22;;;;;;;17.08;9.75;;;4.00;99.70;;;;;;2041256;29;20518;-78
2021/03/16 01:29:23;;;;;;;14.80;9.73;;;4.00;99.40;;;;;;2026027;29;20100;-76
2021/03/16 01:30:24;;;;;;;14.93;10.02;;;4.00;99.20;;;;;;2025936;29;20032;-78
2021/03/16 01:31:25;;;;;;;14.23;9.80;;;3.90;99.20;;;;;;2041500;29;20479;-78
2021/03/16 01:32:25;;;;;;;14.65;10.00;;;3.90;99.30;;;;;;2042032;29;20024;-78
2021/03/16 01:33:26;;;;;;;14.90;10.05;;;3.90;99.40;;;;;;2033952;29;20024;-77
2021/03/16 01:34:27;;;;;;;13.77;10.10;;;4.00;99.40;;;;;;2042288;29;20499;-79
2021/03/16 01:35:27;;;;;;;16.50;10.23;;;4.00;99.40;;;;;;2043025;29;20081;-77
2021/03/16 01:36:28;;;;;;;17.00;9.05;;;4.00;99.20;;;;;;2045233;29;20047;-77
2021/03/16 01:37:30;;;;;;;17.42;10.43;;;4.00;99.30;;;;;;2044763;29;20042;-75
2021/03/16 01:38:30;;;;;;;15.52;10.07;;;4.00;99.30;;;;;;2039851;28;20032;-78
2021/03/16 01:39:31;;;;;;;15.93;10.30;;;4.00;99.10;;;;;;2045504;29;20125;-77
2021/03/16 01:40:34;;;;;;;17.33;10.15;;;4.00;99.30;;;;;;2044761;29;20511;-77
2021/03/16 01:41:35;;;;;;;14.57;10.10;;;4.00;99.20;;;;;;2037916;29;20032;-77
2021/03/16 01:42:36;;;;;;;15.48;10.15;;;4.00;99.30;;;;;;2049405;29;20043;-77
2021/03/16 01:43:36;;;;;;;14.93;9.77;;;4.00;99.10;;;;;;2049515;29;20032;-77
2021/03/16 01:44:38;;;;;;;17.40;10.65;;;4.00;99.00;;;;;;2048402;29;20031;-77
2021/03/16 01:45:40;;;;;;;16.88;10.20;;;4.00;99.00;;;;;;2038959;29;20096;-77
2021/03/16 01:46:41;;;;;;;14.68;10.13;;;4.10;99.00;;;;;;2039744;29;20387;-77
2021/03/16 01:47:47;;;;;;;17.10;10.02;;;4.10;99.20;;;;;;2047726;29;20031;-76
2021/03/16 01:48:49;;;;;;;16.05;10.45;;;4.10;99.20;;;;;;2040167;28;20038;-77
2021/03/16 01:49:51;;;;;;;16.95;10.52;;;4.10;99.30;;;;;;2033349;29;20035;-77
2021/03/16 01:50:51;;;;;;;15.57;10.15;;;4.10;98.90;;;;;;2033950;29;20024;-77
2021/03/16 01:51:52;;;;;;;16.60;10.68;;;4.10;98.90;;;;;;2034101;28;20032;-77
2021/03/16 01:52:54;;;;;;;15.23;10.05;;;4.10;98.90;;;;;;2042465;29;20027;-78
2021/03/16 01:53:54;;;;;;;15.98;10.77;;;4.10;98.80;;;;;;2042247;29;20039;-77
2021/03/16 01:54:56;;;;;;;15.73;10.77;;;4.10;98.70;;;;;;2042529;28;20063;-76
2021/03/16 01:56:00;;;;;;;19.20;10.70;;;4.10;98.70;;;;;;2042474;28;20034;-77
2021/03/16 01:57:20;;;;;;;14.18;10.30;;;4.10;98.60;;;;;;2030270;29;20127;-78
2021/03/16 01:58:42;;;;;;;16.83;9.77;;;4.10;98.50;;;;;;2035630;29;20048;-77
2021/03/16 02:00:03;;;;;;;15.25;9.30;;;4.10;98.50;;;;;;2036501;29;20504;-77
2021/03/16 02:01:22;;;;;;;16.98;10.40;;;4.20;98.60;;;;;;2035326;29;20044;-78
2021/03/16 02:02:41;;;;;;;14.00;9.65;;;4.20;98.50;;;;;;2035519;29;20036;-76
2021/03/16 02:04:00;;;;;;;16.80;10.25;;;4.20;98.60;;;;;;2033681;29;20044;-77
2021/03/16 02:05:20;;;;;;;17.42;10.60;;;4.20;98.40;;;;;;2034074;29;20024;-77
2021/03/16 02:06:54;;;;;;;14.82;10.25;;;4.20;98.40;;;;;;2035082;29;20068;-77
2021/03/16 02:08:18;;;;;;;16.05;9.98;;;4.20;98.40;;;;;;2034403;29;20021;-77
2021/03/16 02:09:49;;;;;;;18.95;10.65;;;4.20;98.40;;;;;;2033596;29;20040;-77
2021/03/16 02:11:39;;;;;;;17.88;10.73;;;4.20;98.20;;;;;;2032902;29;20100;-76
2021/03/16 02:13:06;;;;;;;19.25;10.60;;;4.20;98.40;;;;;;2034169;29;20048;-78
2021/03/16 02:14:33;;;;;;;17.15;10.88;;;4.20;98.50;;;;;;2034589;29;20420;-77
2021/03/16 02:16:01;;;;;;;17.23;10.73;;;4.20;98.50;;;;;;2032873;29;20060;-77
2021/03/16 02:17:27;;;;;;;16.23;10.88;;;4.20;98.40;;;;;;2033499;29;20028;-78
2021/03/16 02:18:51;;;;;;;17.42;10.60;;;4.20;98.10;;;;;;2033959;29;20040;-77
2021/03/16 02:20:45;;;;;;;14.73;10.27;;;4.20;98.10;;;;;;2033721;29;20040;-77
2021/03/16 02:22:05;;;;;;;17.45;10.18;;;4.20;98.10;;;;;;2033807;29;20028;-78
2021/03/16 02:24:08;;;;;;;15.57;9.93;;;4.30;98.10;;;;;;2040524;29;20102;-77
2021/03/16 02:26:02;;;;;;;17.63;10.73;;;4.20;98.10;;;;;;2048631;28;20495;-78
2021/03/16 02:27:30;;;;;;;17.63;9.90;;;4.20;98.10;;;;;;2037516;28;20067;-77
2021/03/16 02:29:10;;;;;;;16.73;9.88;;;4.20;97.90;;;;;;2040994;29;20472;-77
2021/03/16 02:30:30;;;;;;;16.83;9.82;;;4.20;97.90;;;;;;2034164;29;20128;-77
2021/03/16 02:31:58;;;;;;;14.88;10.15;;;4.20;97.90;;;;;;2037092;29;20036;-78
2021/03/16 02:33:22;;;;;;;15.13;9.77;;;4.30;98.00;;;;;;2036794;29;20100;-77
2021/03/16 02:34:45;;;;;;;15.48;9.55;;;4.20;97.80;;;;;;2037025;29;20119;-78
2021/03/16 02:36:06;;;;;;;15.30;9.60;;;4.20;97.60;;;;;;2043922;29;20065;-78
2021/03/16 02:37:27;;;;;;;15.48;10.00;;;4.20;97.80;;;;;;2039624;29;20052;-77
2021/03/16 02:38:50;;;;;;;16.35;9.75;;;4.20;98.00;;;;;;2036879;29;20036;-77
2021/03/16 02:40:12;;;;;;;15.88;9.65;;;4.30;97.90;;;;;;2036134;29;20028;-77
2021/03/16 02:41:32;;;;;;;14.65;8.85;;;4.30;97.80;;;;;;2035621;29;20036;-78
2021/03/16 02:42:51;;;;;;;12.88;8.57;;;4.30;97.70;;;;;;2034916;29;20041;-77
2021/03/16 02:44:11;;;;;;;15.38;9.02;;;4.40;97.60;;;;;;2034501;29;20072;-77
2021/03/16 02:45:31;;;;;;;14.07;9.00;;;4.40;97.30;;;;;;2035419;29;20032;-77
2021/03/16 02:46:52;;;;;;;12.52;8.45;;;4.30;97.30;;;;;;2034195;29;20086;-77
2021/03/16 02:48:12;;;;;;;12.48;8.50;;;4.30;97.40;;;;;;2035015;29;20040;-77
2021/03/16 02:49:36;;;;;;;11.32;8.45;;;4.30;97.30;;;;;;2034221;29;20068;-77
2021/03/16 02:50:56;;;;;;;12.52;8.52;;;4.30;97.40;;;;;;2032935;29;20438;-78
2021/03/16 02:52:16;;;;;;;12.88;8.38;;;4.30;97.20;;;;;;2040848;29;20499;-78
2021/03/16 02:53:37;;;;;;;14.85;8.05;;;4.30;97.40;;;;;;2036205;29;20044;-78
2021/03/16 02:54:57;;;;;;;12.68;8.50;;;4.30;97.40;;;;;;2034938;29;20100;-78
2021/03/16 02:56:17;;;;;;;14.05;7.93;;;4.30;97.50;;;;;;2034340;29;20036;-78
2021/03/16 02:57:39;;;;;;;12.32;7.80;;;4.30;97.50;;;;;;2034022;29;20028;-77
2021/03/16 02:58:59;;;;;;;11.45;7.85;;;4.30;97.60;;;;;;2033799;29;20411;-77
2021/03/16 03:00:19;;;;;;;10.20;7.20;;;4.20;97.20;;;;;;2042442;29;20055;-77
2021/03/16 03:01:40;;;;;;;13.43;7.68;;;4.20;97.40;;;;;;2036602;29;20036;-77
2021/03/16 03:03:00;;;;;;;11.73;7.80;;;4.20;97.60;;;;;;2034388;29;20028;-77
2021/03/16 03:04:21;;;;;;;9.32;6.93;;;4.20;97.60;;;;;;2034214;29;20732;-77
2021/03/16 03:05:42;;;;;;;10.18;7.45;;;4.20;97.50;;;;;;2033772;29;20036;-77
2021/03/16 03:07:02;;;;;;;10.25;7.75;;;4.20;97.60;;;;;;2033062;29;20028;-77
2021/03/16 03:08:23;;;;;;;;;;;4.20;97.70;;;;;;2033860;29;20036;-78
2021/03/16 03:09:42;;;;;;;10.30;7.32;;;4.10;97.60;;;;;;2033654;29;19915;-78
2021/03/16 03:11:01;;;;;;;12.20;7.70;;;4.10;97.70;;;;;;2032954;29;20558;-77
2021/03/16 03:12:20;;;;;;;10.55;7.50;;;4.10;97.70;;;;;;2032925;29;20040;-78
2021/03/16 03:13:39;;;;;;;11.45;8.02;;;4.10;97.80;;;;;;2034009;29;20043;-77
2021/03/16 03:14:59;;;;;;;12.07;8.40;;;4.10;97.90;;;;;;2038296;29;20036;-76
2021/03/16 03:16:18;;;;;;;14.45;8.38;;;4.10;98.10;;;;;;2037599;29;20032;-77
2021/03/16 03:17:37;;;;;;;11.45;8.60;;;4.10;98.30;;;;;;2033649;29;20420;-77
2021/03/16 03:18:56;;;;;;;14.25;8.63;;;4.00;98.50;;;;;;2033149;29;20488;-78
2021/03/16 03:20:16;;;;;;;12.25;8.82;;;4.00;98.50;;;;;;2032577;29;20395;-76
2021/03/16 03:21:48;;;;;;;13.95;9.45;;;4.00;98.60;;;;;;2040047;29;20510;-77
2021/03/16 03:23:31;;;;;;;12.05;8.70;;;4.00;98.50;;;;;;2033937;29;20528;-77
2021/03/16 03:24:56;;;;;;;14.35;9.35;;;4.00;98.50;;;;;;2032698;29;20056;-77
2021/03/16 03:26:24;;;;;;;14.40;9.32;;;4.00;98.40;;;;;;2032567;29;20422;-77
2021/03/16 03:27:48;;;;;;;12.40;9.63;;;4.00;98.50;;;;;;2032667;29;20024;-77
2021/03/16 03:29:08;;;;;;;14.68;9.93;;;4.00;98.50;;;;;;2032648;29;20036;-77
2021/03/16 03:30:29;;;;;;;15.98;10.27;;;4.00;98.40;;;;;;2032582;29;20032;-78
2021/03/16 03:31:48;;;;;;;;;;;4.00;98.20;;;;;;2032944;29;20404;-77
2021/03/16 03:33:10;;;;;;;16.30;10.07;;;4.00;98.40;;;;;;2032741;29;19935;-77
2021/03/16 03:34:31;;;;;;;13.77;9.20;;;4.00;98.30;;;;;;2032738;29;20063;-77
2021/03/16 03:35:50;;;;;;;13.30;9.07;;;4.00;98.10;;;;;;2033413;29;20555;-77
2021/03/16 03:37:12;;;;;;;13.65;9.65;;;4.10;97.90;;;;;;2033301;29;20659;-78
2021/03/16 03:38:32;;;;;;;16.25;10.77;;;4.10;97.90;;;;;;2033342;29;20508;-77
2021/03/16 03:39:53;;;;;;;17.60;10.65;;;4.10;98.10;;;;;;2032466;29;20036;-77
2021/03/16 03:41:12;;;;;;;13.85;10.38;;;4.00;98.20;;;;;;2032453;29;20322;-77
2021/03/16 03:42:32;;;;;;;15.93;10.73;;;4.00;98.20;;;;;;2032519;29;20032;-77
2021/03/16 03:43:52;;;;;;;14.52;10.85;;;4.00;98.50;;;;;;2039459;29;20830;-77
2021/03/16 03:45:13;;;;;;;15.13;10.18;;;4.00;98.40;;;;;;2032867;29;20032;-76
2021/03/16 03:46:34;;;;;;;;;;;3.90;98.40;;;;;;2039849;29;20039;-76
2021/03/16 03:47:55;;;;;;;14.32;9.65;;;3.90;98.20;;;;;;2035198;29;19911;-77
2021/03/16 03:49:15;;;;;;;16.00;10.57;;;3.90;98.30;;;;;;2039555;29;20039;-77
2021/03/16 03:50:41;;;;;;;16.15;10.07;;;3.90;98.40;;;;;;2034623;29;20028;-77
2021/03/16 03:52:00;;;;;;;15.65;10.80;;;3.90;98.60;;;;;;2032211;29;20040;-77
2021/03/16 03:53:20;;;;;;;15.77;10.77;;;3.80;98.70;;;;;;2031983;29;20063;-77
2021/03/16 03:54:43;;;;;;;17.50;10.80;;;3.80;98.90;;;;;;2032488;29;20032;-77
2021/03/16 03:56:04;;;;;;;16.65;10.77;;;3.70;99.10;;;;;;2032781;29;20028;-77
2021/03/16 03:57:24;;;;;;;17.00;10.95;;;3.80;99.20;;;;;;2032660;29;20484;-77
2021/03/16 03:58:45;;;;;;;14.63;10.30;;;3.80;99.30;;;;;;2033081;29;20071;-78
2021/03/16 04:00:05;;;;;;;15.95;10.27;;;3.70;99.20;;;;;;2033806;29;20036;-77
2021/03/16 04:01:27;;;;;;;19.27;11.23;;;3.70;99.20;;;;;;2033802;29;20447;-78
2021/03/16 04:02:46;;;;;;;18.27;10.80;;;3.70;99.40;;;;;;2040483;29;20499;-77
2021/03/16 04:04:06;;;;;;;18.15;10.75;;;3.60;99.40;;;;;;2034661;29;20484;-77
2021/03/16 04:05:26;;;;;;;15.88;10.77;;;3.60;99.50;;;;;;2032277;29;20542;-77
2021/03/16 04:06:45;;;;;;;17.77;10.80;;;3.60;99.60;;;;;;2032476;29;20517;-77
2021/03/16 04:08:05;;;;;;;14.38;10.20;;;3.60;99.50;;;;;;2032309;29;20032;-76
2021/03/16 04:09:24;;;;;;;18.02;11.18;;;3.60;99.60;;;;;;2032407;29;20083;-77
2021/03/16 04:10:43;;;;;;;17.10;10.98;;;3.60;99.70;;;;;;2032390;29;20555;-77
2021/03/16 04:12:06;;;;;;;17.10;10.32;;;3.60;99.70;;;;;;2032160;29;20028;-77
2021/03/16 04:13:26;;;;;;;15.68;10.88;;;3.60;99.80;;;;;;2031732;29;20028;-76
2021/03/16 04:14:46;;;;;;;17.70;11.15;;;3.60;99.70;;;;;;2032361;29;20474;-76
2021/03/16 04:16:05;;;;;;;15.07;10.07;;;3.70;99.80;;;;;;2032355;29;20032;-76
2021/03/16 04:17:25;;;;;;;18.13;11.02;;;3.70;99.60;;;;;;2032271;29;20040;-76
2021/03/16 04:18:45;;;;;;;14.63;10.10;;;3.70;99.60;;;;;;2032182;29;20107;-77
2021/03/16 04:20:06;;;;;;;;;;;3.70;99.70;;;;;;2032722;29;20543;-77
2021/03/16 04:21:25;;;;;;;17.25;10.32;;;3.70;99.70;;;;;;2031996;29;19903;-76
2021/03/16 04:22:45;;;;;;;15.43;10.00;;;3.60;99.60;;;;;;2032313;29;20032;-77
2021/03/16 04:24:04;;;;;;;15.65;9.55;;;3.70;99.60;;;;;;2031963;29;20100;-77
2021/03/16 04:25:23;;;;;;;16.02;10.05;;;3.70;99.50;;;;;;2039800;29;20044;-77
2021/03/16 04:26:43;;;;;;;15.35;10.25;;;3.70;99.70;;;;;;2034663;29;20527;-77
2021/03/16 04:28:02;;;;;;;16.67;9.90;;;3.70;99.70;;;;;;2032115;29;20032;-76
2021/03/16 04:29:21;;;;;;;13.43;9.40;;;3.70;99.70;;;;;;2032115;29;20032;-76
2021/03/16 04:30:40;;;;;;;13.90;8.82;;;3.70;99.50;;;;;;2031975;29;20033;-75
2021/03/16 04:31:59;;;;;;;11.82;8.52;;;3.70;99.40;;;;;;2039456;29;20047;-75
2021/03/16 04:33:19;;;;;;;15.00;8.50;;;3.80;99.20;;;;;;2034623;29;20087;-75
2021/03/16 04:34:38;;;;;;;13.45;8.38;;;3.70;99.10;;;;;;2032195;29;20037;-75
2021/03/16 04:35:58;;;;;;;14.15;8.60;;;3.70;99.10;;;;;;2032737;29;20032;-75
2021/03/16 04:37:17;;;;;;;12.93;8.15;;;3.70;99.00;;;;;;2032900;29;20091;-75
2021/03/16 04:38:36;;;;;;;11.88;7.63;;;3.70;98.90;;;;;;2033162;29;20024;-76
2021/03/16 04:39:55;;;;;;;13.80;8.30;;;3.80;98.90;;;;;;2039470;29;20032;-76
2021/03/16 04:41:14;;;;;;;13.57;8.30;;;3.70;98.80;;;;;;2034646;29;20036;-76
2021/03/16 04:42:33;;;;;;;11.70;7.93;;;3.70;99.00;;;;;;2032094;29;20036;-76
2021/03/16 04:43:52;;;;;;;10.75;7.85;;;3.80;98.90;;;;;;2031415;29;20036;-77
2021/03/16 04:45:12;;;;;;;11.68;7.75;;;3.70;98.80;;;;;;2031897;29;20508;-77
2021/03/16 04:46:31;;;;;;;12.82;7.68;;;3.80;98.80;;;;;;2031915;29;20446;-76
2021/03/16 04:47:50;;;;;;;11.80;8.02;;;3.80;98.70;;;;;;2039084;29;20106;-76
2021/03/16 04:49:09;;;;;;;11.45;7.50;;;3.80;98.50;;;;;;2034757;29;20032;-76
2021/03/16 04:50:28;;;;;;;12.63;8.00;;;3.80;98.50;;;;;;2038897;29;20071;-76
2021/03/16 04:51:48;;;;;;;11.43;7.30;;;3.80;98.60;;;;;;2034803;29;20040;-75
2021/03/16 04:53:07;;;;;;;13.95;7.80;;;3.80;98.60;;;;;;2033206;29;20511;-76
2021/03/16 04:54:27;;;;;;;13.13;7.55;;;3.70;98.50;;;;;;2040489;29;20458;-76
2021/03/16 04:55:46;;;;;;;9.63;6.80;;;3.70;98.20;;;;;;2036061;29;20495;-75
2021/03/16 04:57:05;;;;;;;9.95;6.60;;;3.70;97.80;;;;;;2033116;29;20044;-76
2021/03/16 04:58:24;;;;;;;10.85;6.70;;;3.80;97.60;;;;;;2033271;29;20032;-75
2021/03/16 04:59:43;;;;;;;9.38;6.45;;;3.80;97.30;;;;;;2033177;29;20496;-75
2021/03/16 05:01:02;;;;;;;11.43;7.05;;;3.80;97.20;;;;;;2033022;29;20476;-75
2021/03/16 05:02:21;;;;;;;10.50;6.03;;;3.80;97.10;;;;;;2033266;29;20055;-75
2021/03/16 05:03:40;;;;;;;9.35;6.22;;;3.80;96.90;;;;;;2032578;29;20021;-75
2021/03/16 05:04:59;;;;;;;10.60;6.40;;;3.80;96.70;;;;;;2032548;29;20139;-75
2021/03/16 05:06:18;;;;;;;10.05;5.50;;;3.70;96.50;;;;;;2032962;29;20445;-75
2021/03/16 05:07:37;;;;;;;10.75;5.70;;;3.80;95.90;;;;;;2033035;29;20028;-75
2021/03/16 05:08:57;;;;;;;7.25;4.88;;;3.80;95.80;;;;;;2033141;29;20059;-75
2021/03/16 05:10:16;;;;;;;9.20;4.82;;;3.90;95.40;;;;;;2033150;29;20122;-75
2021/03/16 05:11:36;;;;;;;7.68;4.88;;;3.80;95.10;;;;;;2033158;29;20047;-75
2021/03/16 05:12:55;;;;;;;10.35;5.15;;;3.90;95.20;;;;;;2033205;29;20036;-75
2021/03/16 05:14:14;;;;;;;7.75;5.00;;;3.80;95.30;;;;;;2033195;29;20736;-75
2021/03/16 05:15:32;;;;;;;8.32;4.85;;;3.80;95.30;;;;;;2033026;29;20036;-75
2021/03/16 05:16:51;;;;;;;7.93;5.00;;;3.80;95.10;;;;;;2033134;29;20032;-75
2021/03/16 05:18:11;;;;;;;7.95;5.00;;;3.80;95.30;;;;;;2033004;29;20036;-75
2021/03/16 05:19:30;;;;;;;8.13;5.03;;;3.70;95.40;;;;;;2033143;29;20028;-75
2021/03/16 05:20:49;;;;;;;8.05;4.55;;;3.70;95.50;;;;;;2032906;29;20059;-76
2021/03/16 05:22:08;;;;;;;7.85;5.07;;;3.70;95.50;;;;;;2033328;29;20032;-75
2021/03/16 05:23:28;;;;;;;7.32;4.90;;;3.80;95.40;;;;;;2032888;29;20032;-76
2021/03/16 05:24:47;;;;;;;6.03;4.50;;;3.80;95.20;;;;;;2033340;29;20024;-76
2021/03/16 05:26:06;;;;;;;9.50;4.85;;;3.80;95.50;;;;;;2033181;29;20040;-75
2021/03/16 05:27:25;;;;;;;6.60;4.70;;;3.70;95.60;;;;;;2033309;29;20024;-75
2021/03/16 05:28:44;;;;;;;6.88;4.47;;;3.70;95.40;;;;;;2033299;29;20044;-75
2021/03/16 05:30:06;;;;;;;9.23;4.40;;;3.70;95.40;;;;;;2040857;29;20027;-76
2021/03/16 05:31:25;;;;;;;7.65;4.63;;;3.70;95.10;;;;;;2035695;29;20776;-76
2021/03/16 05:32:44;;;;;;;6.32;4.50;;;3.70;94.80;;;;;;2033509;29;20470;-75
2021/03/16 05:34:03;;;;;;;7.55;4.63;;;3.80;94.50;;;;;;2033197;29;20496;-75
2021/03/16 05:35:23;;;;;;;6.82;4.53;;;3.80;94.70;;;;;;2033775;29;20036;-75
2021/03/16 05:36:42;;;;;;;8.63;4.90;;;3.80;94.80;;;;;;2044587;29;20419;-76
2021/03/16 05:38:02;;;;;;;7.97;4.50;;;3.80;94.90;;;;;;2037931;29;20937;-75
2021/03/16 05:39:21;;;;;;;8.77;4.60;;;3.80;95.00;;;;;;2041071;29;20040;-75
2021/03/16 05:40:41;;;;;;;6.75;4.30;;;3.80;94.90;;;;;;2036706;29;20032;-75
2021/03/16 05:42:01;;;;;;;7.53;4.38;;;3.80;94.70;;;;;;2034325;29;20033;-75
2021/03/16 05:43:21;;;;;;;9.95;4.63;;;3.80;94.50;;;;;;2032822;29;20127;-75
2021/03/16 05:44:40;;;;;;;8.25;4.30;;;3.80;94.40;;;;;;2035327;29;20036;-76
2021/03/16 05:46:00;;;;;;;7.50;4.30;;;3.80;94.60;;;;;;2041152;29;20071;-76
2021/03/16 05:47:21;;;;;;;7.22;4.45;;;3.80;94.50;;;;;;2036355;29;20036;-75
2021/03/16 05:48:46;;;;;;;7.10;4.00;;;3.80;94.60;;;;;;2037183;29;20036;-76
2021/03/16 05:50:07;;;;;;;5.88;4.10;;;3.70;94.30;;;;;;2033550;29;20036;-75
2021/03/16 05:51:26;;;;;;;8.05;4.18;;;3.70;94.40;;;;;;2033790;29;20044;-75
2021/03/16 05:52:47;;;;;;;6.55;4.25;;;3.70;94.40;;;;;;2033647;29;20040;-75
2021/03/16 05:54:06;;;;;;;6.18;4.15;;;3.70;94.40;;;;;;2033279;29;20559;-75
2021/03/16 05:55:25;;;;;;;6.20;3.80;;;3.70;94.30;;;;;;2033539;29;20457;-76
2021/03/16 05:56:45;;;;;;;6.70;4.10;;;3.80;94.10;;;;;;2033664;29;20032;-75
2021/03/16 05:58:04;;;;;;;6.53;3.90;;;3.80;94.10;;;;;;2033206;29;20040;-75
2021/03/16 05:59:24;;;;;;;5.68;3.63;;;3.80;93.90;;;;;;2033607;29;20040;-74
2021/03/16 06:00:44;;;;;;;6.78;4.00;;;3.80;93.90;;;;;;2040340;29;20488;-74
2021/03/16 06:02:03;;;;;;;7.75;3.83;;;3.80;94.00;;;;;;2036085;29;20111;-74
2021/03/16 06:03:22;;;;;;;5.90;3.80;;;3.80;93.70;;;;;;2033173;29;20445;-76
2021/03/16 06:04:45;;;;;;;4.93;3.63;;;3.80;93.30;;;;;;2033702;29;20563;-76
2021/03/16 06:06:05;;;;;;;6.30;3.35;;;3.90;93.40;;;;;;2033115;29;20044;-76
2021/03/16 06:07:24;;;;;;;5.35;3.42;;;3.90;93.20;;;;;;2040308;29;20032;-76
2021/03/16 06:08:43;;;;;;;4.80;3.40;;;3.90;93.50;;;;;;2036400;29;20516;-76
2021/03/16 06:10:02;;;;;;;5.47;3.50;;;3.90;93.30;;;;;;2033047;29;20028;-76
2021/03/16 06:11:21;;;;;;;5.95;3.50;;;3.90;92.80;;;;;;2032844;29;20044;-76
2021/03/16 06:12:41;;;;;;;8.30;3.72;;;3.90;93.30;;;;;;2033187;29;20036;-76
2021/03/16 06:14:00;;;;;;;5.40;3.33;;;3.90;92.60;;;;;;2032554;29;20078;-76
2021/03/16 06:15:21;;;;;;;5.85;3.45;;;3.90;92.40;;;;;;2033272;29;20031;-76
2021/03/16 06:16:41;;;;;;;4.03;3.05;;;3.90;92.10;;;;;;2032678;29;20044;-76
2021/03/16 06:18:00;;;;;;;7.25;3.35;;;3.90;92.20;;;;;;2032769;29;20488;-76
2021/03/16 06:19:26;;;;;;;7.70;3.33;;;3.90;92.30;;;;;;2040470;29;20483;-75
2021/03/16 06:20:56;;;;;;;4.45;3.10;;;3.90;92.20;;;;;;2035046;29;20104;-77
2021/03/16 06:22:18;;;;;;;4.25;3.17;;;3.90;91.60;;;;;;2033197;29;20032;-76
2021/03/16 06:23:38;;;;;;;4.85;2.97;;;3.90;91.70;;;;;;2032750;29;20092;-76
2021/03/16 06:24:57;;;;;;;4.60;3.45;;;3.90;91.60;;;;;;2033235;29;20037;-76
2021/03/16 06:26:19;;;;;;;5.05;3.13;;;3.90;90.90;;;;;;2033339;29;20040;-76
2021/03/16 06:27:38;;;;;;;4.32;2.80;;;4.00;90.90;;;;;;2032884;29;20143;-76